Time;durP1;ratioP1;P1;durP2;ratioP2;P2;SDS_P1;SDS_P2;PMS_P1;PMS_P2;Temp;Humidity;BMP_temperature;BMP_pressure;BME280_temperature;BME280_humidity;BME280_pressure;Samples;Min_cycle;Max_cycle;Signal;HPM_P1;HPM_P2
2022/05/16 00:01:33;;;;;;;;;5.00;5.00;;;;;19.08;68.04;100388.41;4957407;28;46255;-74
2022/05/16 00:03:58;;;;;;;;;6.50;6.50;;;;;19.08;68.21;100379.56;4957667;28;45403;-75
2022/05/16 00:06:23;;;;;;;;;7.75;6.75;;;;;19.10;68.23;100383.84;4959229;28;45359;-73
2022/05/16 00:08:49;;;;;;;;;6.25;6.25;;;;;19.09;68.33;100389.28;4958749;28;45442;-74
2022/05/16 00:11:14;;;;;;;;;7.75;7.25;;;;;19.10;68.02;100405.16;4958414;28;46774;-74
2022/05/16 00:13:39;;;;;;;;;4.75;4.75;;;;;19.12;67.83;100415.69;4957316;28;45342;-73
2022/05/16 00:16:05;;;;;;;;;7.25;6.25;;;;;19.20;68.20;100445.25;4957256;28;45469;-73
2022/05/16 00:18:30;;;;;;;;;7.00;7.00;;;;;19.24;69.48;100467.19;4957239;28;45616;-74
2022/05/16 00:20:55;;;;;;;;;17.75;13.25;;;;;19.22;81.70;100424.66;4959435;28;45468;-74
2022/05/16 00:23:21;;;;;;;;;13.50;11.00;;;;;18.92;88.03;100417.22;4940289;28;45748;-73
2022/05/16 00:25:46;;;;;;;;;12.75;11.00;;;;;18.71;90.86;100409.09;4958044;28;45427;-72
2022/05/16 00:28:12;;;;;;;;;13.50;10.00;;;;;18.66;93.83;100390.78;4957704;28;45251;-72
2022/05/16 00:30:37;;;;;;;;;14.50;9.00;;;;;18.63;94.83;100386.56;4958493;28;46243;-74
2022/05/16 00:33:02;;;;;;;;;12.50;11.00;;;;;18.51;93.58;100371.50;4958269;28;45438;-74
2022/05/16 00:35:28;;;;;;;;;10.00;7.50;;;;;18.43;95.17;100357.94;4957825;28;45337;-73
2022/05/16 00:37:53;;;;;;;;;13.25;10.50;;;;;18.39;93.34;100368.81;4957613;28;45525;-74
2022/05/16 00:40:19;;;;;;;;;10.75;10.25;;;;;18.35;90.16;100395.81;4957386;28;46389;-74
2022/05/16 00:42:45;;;;;;;;;11.50;8.00;;;;;18.24;90.19;100402.81;4958814;28;45410;-74
2022/05/16 00:45:13;;;;;;;;;7.50;7.50;;;;;18.21;89.00;100395.03;4956438;28;45524;-75
2022/05/16 00:47:39;;;;;;;;;9.00;6.00;;;;;18.12;88.61;100387.75;4957676;28;45526;-74
2022/05/16 00:50:05;;;;;;;;;8.25;7.00;;;;;18.14;87.14;100380.50;4939166;28;47303;-73
2022/05/16 00:52:35;;;;;;;;;7.00;7.00;;;;;18.08;85.53;100367.66;4957062;28;45461;-73
2022/05/16 00:55:06;;;;;;;;;9.25;9.25;;;;;17.94;83.40;100353.53;4955358;28;45263;-73
2022/05/16 00:57:39;;;;;;;;;7.00;7.00;;;;;18.12;82.85;100382.44;4939359;28;45415;-72
2022/05/16 01:00:12;;;;;;;;;6.00;6.00;;;;;18.12;81.73;100378.91;4956713;28;46217;-73
2022/05/16 01:05:26;;;;;;;;;7.50;7.50;;;;;18.10;81.33;100366.56;4957614;28;45374;-72
2022/05/16 01:07:56;;;;;;;;;8.50;7.00;;;;;18.10;80.41;100352.41;4957664;28;45488;-73
2022/05/16 01:10:22;;;;;;;;;7.75;7.75;;;;;18.14;80.21;100356.53;4955831;28;45455;-72
2022/05/16 01:12:49;;;;;;;;;6.75;6.75;;;;;18.15;79.74;100358.25;4957500;28;45481;-73
2022/05/16 01:15:26;;;;;;;;;7.75;7.75;;;;;18.18;79.46;100359.81;4959397;28;45463;-73
2022/05/16 01:17:51;;;;;;;;;7.00;7.00;;;;;18.17;78.99;100350.13;4956770;28;45387;-73
2022/05/16 01:20:16;;;;;;;;;9.25;8.00;;;;;18.24;78.76;100360.19;4956462;28;46153;-74
2022/05/16 01:22:46;;;;;;;;;6.75;6.75;;;;;18.27;77.84;100363.59;4956288;28;45430;-72
2022/05/16 01:25:16;;;;;;;;;6.25;6.25;;;;;18.25;78.08;100358.38;4956883;28;45337;-74
2022/05/16 01:28:01;;;;;;;;;7.00;5.75;;;;;18.30;78.01;100368.69;4940364;28;45649;-74
2022/05/16 01:30:34;;;;;;;;;10.50;10.50;;;;;18.30;77.77;100374.00;4956868;28;46562;-74
2022/05/16 01:33:00;;;;;;;;;7.00;6.00;;;;;18.30;77.71;100369.53;4956926;28;45355;-74
2022/05/16 01:35:30;;;;;;;;;7.25;7.25;;;;;18.29;77.56;100370.47;4955924;28;45402;-73
2022/05/16 01:40:41;;;;;;;;;7.00;6.00;;;;;18.17;77.46;100361.63;4955860;28;45765;-74
2022/05/16 01:43:08;;;;;;;;;8.25;7.00;;;;;18.21;77.32;100372.88;4957060;28;45779;-74
2022/05/16 01:45:34;;;;;;;;;6.75;6.00;;;;;18.16;77.44;100393.69;4956867;28;45205;-74
2022/05/16 01:48:00;;;;;;;;;5.00;5.00;;;;;18.18;77.25;100397.06;4956972;28;45547;-74
2022/05/16 01:50:26;;;;;;;;;6.00;6.00;;;;;18.15;77.66;100395.50;4955857;28;45564;-73
2022/05/16 01:52:51;;;;;;;;;8.00;8.00;;;;;18.15;77.53;100382.19;4956424;28;45323;-75
2022/05/16 01:55:17;;;;;;;;;6.75;6.75;;;;;18.17;77.12;100384.72;4954889;28;45285;-72
2022/05/16 01:57:43;;;;;;;;;8.75;8.25;;;;;18.16;77.26;100389.22;4956550;28;45298;-73
2022/05/16 02:00:11;;;;;;;;;9.50;8.75;;;;;18.18;77.28;100395.28;4955768;28;45441;-73
2022/05/16 02:02:39;;;;;;;;;7.25;6.75;;;;;18.19;76.97;100391.66;4955587;28;45414;-74
2022/05/16 02:05:05;;;;;;;;;10.25;9.00;;;;;18.21;76.98;100384.41;4938458;28;45312;-74
2022/05/16 02:07:30;;;;;;;;;8.50;7.25;;;;;18.24;76.76;100401.94;4957838;28;45497;-72
2022/05/16 02:09:55;;;;;;;;;9.00;8.00;;;;;18.22;76.90;100403.88;4956032;28;45465;-74
2022/05/16 02:12:21;;;;;;;;;10.50;10.50;;;;;18.21;76.80;100403.03;4955865;28;45437;-74
2022/05/16 02:14:46;;;;;;;;;10.50;10.50;;;;;18.20;76.61;100404.00;4956100;28;45292;-72
2022/05/16 02:17:11;;;;;;;;;11.25;10.00;;;;;18.19;77.12;100404.97;4956753;28;45267;-74
2022/05/16 02:19:37;;;;;;;;;10.25;9.50;;;;;18.18;76.79;100394.41;4956179;28;45374;-74
2022/05/16 02:24:46;;;;;;;;;12.75;10.25;;;;;18.21;76.74;100383.53;4955785;28;45359;-75
2022/05/16 02:27:13;;;;;;;;;10.25;10.25;;;;;18.23;76.75;100385.13;4956773;28;45624;-73
2022/05/16 02:29:40;;;;;;;;;10.50;9.50;;;;;18.24;76.33;100389.50;4938665;28;47033;-73
2022/05/16 02:32:06;;;;;;;;;12.00;8.75;;;;;18.27;76.30;100384.91;4955318;28;45499;-73
2022/05/16 02:34:31;;;;;;;;;9.50;8.50;;;;;18.27;76.26;100391.06;4955416;28;45313;-74
2022/05/16 02:36:58;;;;;;;;;11.25;11.25;;;;;18.31;76.23;100394.34;4955316;28;45304;-73
2022/05/16 02:39:23;;;;;;;;;10.25;10.25;;;;;18.33;76.52;100401.22;4955630;28;45303;-73
2022/05/16 02:41:49;;;;;;;;;14.25;10.75;;;;;18.32;75.70;100396.88;4940126;28;45578;-75
2022/05/16 02:44:14;;;;;;;;;12.00;11.00;;;;;18.32;75.93;100398.69;4937974;28;45601;-73
2022/05/16 02:46:40;;;;;;;;;13.00;10.00;;;;;18.25;75.56;100388.53;4955662;28;45559;-73
2022/05/16 02:49:06;;;;;;;;;13.00;13.00;;;;;18.34;75.87;100399.44;4956797;28;45412;-72
2022/05/16 02:51:33;;;;;;;;;10.25;10.00;;;;;18.31;74.93;100397.84;4957697;28;45297;-74
2022/05/16 02:53:58;;;;;;;;;11.75;11.00;;;;;18.28;75.19;100400.72;4956806;28;45434;-73
2022/05/16 02:56:27;;;;;;;;;11.75;10.25;;;;;18.37;75.47;100417.84;4956725;28;45553;-74
2022/05/16 02:58:53;;;;;;;;;11.00;9.75;;;;;18.34;75.45;100412.75;4955845;28;46553;-73
2022/05/16 03:01:18;;;;;;;;;10.75;10.75;;;;;18.37;75.59;100413.34;4955412;28;45249;-73
2022/05/16 03:03:43;;;;;;;;;13.50;12.25;;;;;18.32;75.14;100404.03;4955205;28;45423;-73
2022/05/16 03:06:10;;;;;;;;;11.00;11.00;;;;;18.39;75.01;100410.59;4955458;28;45228;-73
2022/05/16 03:08:37;;;;;;;;;14.25;13.50;;;;;18.38;74.96;100401.72;4958847;28;45449;-74
2022/05/16 03:11:03;;;;;;;;;12.25;12.00;;;;;18.44;75.24;100411.09;4958661;28;45385;-74
2022/05/16 03:13:29;;;;;;;;;11.00;11.00;;;;;18.47;75.44;100409.97;4958809;28;45280;-73
2022/05/16 03:15:54;;;;;;;;;15.75;14.00;;;;;18.48;75.45;100404.56;4958948;28;45572;-73
2022/05/16 03:18:20;;;;;;;;;12.00;11.50;;;;;18.50;74.81;100417.72;4940923;28;47199;-73
2022/05/16 03:20:45;;;;;;;;;15.25;13.00;;;;;18.51;75.21;100416.78;4957245;28;45677;-73
2022/05/16 03:23:11;;;;;;;;;14.50;14.25;;;;;18.53;75.44;100428.16;4941885;28;45289;-73
2022/05/16 03:25:36;;;;;;;;;12.25;12.00;;;;;18.54;75.13;100430.72;4960712;28;45197;-73
2022/05/16 03:28:02;;;;;;;;;13.75;13.75;;;;;18.53;74.87;100421.03;4957605;28;47418;-74
2022/05/16 03:30:28;;;;;;;;;14.75;13.25;;;;;18.58;74.75;100433.16;4959172;28;45322;-74
2022/05/16 03:32:54;;;;;;;;;14.00;12.50;;;;;18.58;74.90;100433.16;4942038;28;45301;-74
2022/05/16 03:35:20;;;;;;;;;13.00;12.75;;;;;18.58;75.11;100435.81;4958706;28;45248;-75
2022/05/16 03:37:45;;;;;;;;;16.75;16.75;;;;;18.57;74.72;100431.44;4958352;28;45521;-74
2022/05/16 03:42:55;;;;;;;;;19.00;16.00;;;;;18.51;75.01;100444.28;4958761;28;45422;-74
2022/05/16 03:45:21;;;;;;;;;19.00;17.75;;;;;18.55;74.99;100455.53;4958860;28;45414;-74
2022/05/16 03:47:47;;;;;;;;;14.00;14.00;;;;;18.52;75.39;100455.75;4958936;28;45925;-73
2022/05/16 03:50:13;;;;;;;;;16.75;15.25;;;;;18.45;74.87;100447.41;4959359;28;45454;-75
2022/05/16 03:52:39;;;;;;;;;19.25;18.50;;;;;18.45;75.15;100465.19;4942531;28;45396;-74
2022/05/16 03:55:06;;;;;;;;;19.00;16.50;;;;;18.37;75.58;100455.13;4959053;28;45464;-75
2022/05/16 03:57:32;;;;;;;;;20.00;19.00;;;;;18.33;75.37;100462.47;4957794;28;45469;-74
2022/05/16 03:59:57;;;;;;;;;18.75;17.00;;;;;18.32;75.70;100462.59;4958514;28;45237;-75
2022/05/16 04:02:23;;;;;;;;;18.50;17.25;;;;;18.29;76.17;100476.97;4958255;28;45296;-75
2022/05/16 04:04:48;;;;;;;;;19.75;19.25;;;;;18.27;76.26;100476.25;4940431;28;45541;-75
2022/05/16 04:07:14;;;;;;;;;19.50;17.75;;;;;18.25;76.16;100471.06;4940791;28;47052;-75
2022/05/16 04:09:39;;;;;;;;;20.00;17.25;;;;;18.24;76.31;100473.81;4943483;28;45239;-74
2022/05/16 04:12:05;;;;;;;;;18.00;16.50;;;;;18.18;76.11;100463.63;4958516;28;45254;-75
2022/05/16 04:14:30;;;;;;;;;17.50;15.75;;;;;18.25;76.22;100486.16;4957675;28;45497;-73
2022/05/16 04:16:58;;;;;;;;;18.25;17.00;;;;;18.25;76.35;100475.50;4958407;28;46411;-74
2022/05/16 04:19:23;;;;;;;;;19.00;17.00;;;;;18.30;76.05;100480.50;4957280;28;45367;-74
2022/05/16 04:21:48;;;;;;;;;18.75;17.25;;;;;18.33;76.20;100480.28;4957707;28;45303;-75
2022/05/16 04:24:13;;;;;;;;;20.00;15.50;;;;;18.34;76.17;100500.63;4958008;28;45315;-73
2022/05/16 04:26:39;;;;;;;;;19.50;18.50;;;;;18.35;76.04;100505.81;4957591;28;45600;-75
2022/05/16 04:29:04;;;;;;;;;24.25;19.25;;;;;18.35;76.41;100507.66;4963202;28;45308;-76
2022/05/16 04:31:30;;;;;;;;;19.50;16.50;;;;;18.34;76.50;100514.75;4960473;28;45386;-74
2022/05/16 04:33:55;;;;;;;;;21.00;20.00;;;;;18.34;76.16;100520.09;4940485;28;45636;-74
2022/05/16 04:36:21;;;;;;;;;19.50;18.25;;;;;18.36;76.12;100518.16;4957953;28;45224;-73
2022/05/16 04:38:46;;;;;;;;;21.00;19.50;;;;;18.37;76.04;100527.00;4957849;28;45286;-74
2022/05/16 04:43:55;;;;;;;;;19.50;18.50;;;;;18.43;76.07;100531.88;4960921;28;45264;-75
2022/05/16 04:46:21;;;;;;;;;24.00;20.25;;;;;18.47;76.08;100549.34;4959283;28;45271;-73
2022/05/16 04:48:46;;;;;;;;;20.50;19.50;;;;;18.47;76.09;100549.34;4959801;28;45402;-75
2022/05/16 04:51:12;;;;;;;;;21.25;19.50;;;;;18.44;75.89;100549.56;4959248;28;45745;-75
2022/05/16 04:53:38;;;;;;;;;21.75;21.75;;;;;18.46;75.72;100558.28;4956321;28;45181;-74
2022/05/16 04:56:05;;;;;;;;;19.00;18.00;;;;;18.47;75.72;100562.66;4956410;28;45465;-74
2022/05/16 04:58:33;;;;;;;;;19.25;17.75;;;;;18.50;75.43;100578.41;4956445;28;45370;-75
2022/05/16 05:00:59;;;;;;;;;18.50;18.50;;;;;18.53;76.02;100587.97;4956543;28;45385;-74
2022/05/16 05:03:24;;;;;;;;;18.00;18.00;;;;;18.56;75.60;100602.88;4957191;28;45287;-74
2022/05/16 05:05:50;;;;;;;;;24.25;20.50;;;;;18.51;75.70;100596.09;4959038;28;45420;-75
2022/05/16 05:08:15;;;;;;;;;26.25;23.25;;;;;18.58;75.62;100607.16;4940882;28;45933;-75
2022/05/16 05:16:17;;;;;;;;;21.00;21.00;;;;;18.64;74.94;100625.34;4959378;28;45517;-75
2022/05/16 05:18:43;;;;;;;;;25.25;22.50;;;;;18.62;74.62;100605.09;4959399;28;45387;-75
2022/05/16 05:21:09;;;;;;;;;25.00;23.50;;;;;18.71;74.35;100612.41;4961471;28;45253;-77
2022/05/16 05:23:34;;;;;;;;;23.50;22.25;;;;;18.71;74.55;100593.75;4962679;28;45390;-74
2022/05/16 05:26:01;;;;;;;;;26.75;19.75;;;;;18.81;73.97;100610.75;4962356;28;46024;-75
2022/05/16 05:28:27;;;;;;;;;21.75;20.00;;;;;18.89;73.54;100612.84;4955588;28;45237;-74
2022/05/16 05:30:52;;;;;;;;;23.00;20.50;;;;;18.86;73.45;100597.09;4956661;28;45314;-76
2022/05/16 05:33:19;;;;;;;;;29.00;27.00;;;;;18.97;73.28;100617.63;4957430;28;45306;-75
2022/05/16 05:35:44;;;;;;;;;25.50;25.50;;;;;19.07;73.24;100634.63;4958740;28;45327;-75
2022/05/16 05:38:10;;;;;;;;;25.00;23.25;;;;;19.05;73.04;100631.22;4956771;28;45492;-74
2022/05/16 05:40:37;;;;;;;;;23.00;23.00;;;;;19.08;72.63;100640.81;4956458;28;45334;-74
2022/05/16 05:43:07;;;;;;;;;27.25;24.75;;;;;19.15;72.52;100642.06;4957033;28;45464;-74
2022/05/16 05:45:34;;;;;;;;;24.75;24.75;;;;;19.17;71.93;100658.78;4956109;28;45339;-74
2022/05/16 05:48:00;;;;;;;;;30.00;28.00;;;;;19.24;72.08;100669.84;4956431;28;45221;-74
2022/05/16 05:50:25;;;;;;;;;26.75;24.25;;;;;19.32;71.38;100669.25;4957109;28;45558;-75
2022/05/16 05:52:51;;;;;;;;;27.50;24.25;;;;;19.44;71.38;100680.81;4957346;28;45279;-74
2022/05/16 05:55:17;;;;;;;;;25.75;23.50;;;;;19.53;70.28;100680.13;4956430;28;45520;-74
2022/05/16 05:57:42;;;;;;;;;20.50;18.50;;;;;19.59;69.63;100692.97;4955996;28;45368;-75
2022/05/16 06:00:09;;;;;;;;;22.50;22.50;;;;;19.67;69.78;100687.91;4938293;28;45370;-76
2022/05/16 06:02:40;;;;;;;;;23.25;21.00;;;;;19.77;69.08;100698.72;4956218;28;45438;-75
2022/05/16 06:05:10;;;;;;;;;22.00;20.75;;;;;19.82;69.26;100707.22;4955751;28;47078;-75
2022/05/16 06:07:35;;;;;;;;;24.50;22.00;;;;;19.87;68.73;100701.53;4956073;28;45343;-75
2022/05/16 06:10:01;;;;;;;;;27.00;22.75;;;;;19.97;68.37;100705.19;4937872;28;45335;-74
2022/05/16 06:12:26;;;;;;;;;25.75;23.75;;;;;20.00;68.04;100699.63;4956447;28;45233;-75
2022/05/16 06:14:51;;;;;;;;;22.75;21.75;;;;;20.07;68.16;100702.69;4937728;28;47399;-74
2022/05/16 06:17:18;;;;;;;;;24.00;23.50;;;;;20.15;68.04;100712.78;4937782;28;45304;-73
2022/05/16 06:19:43;;;;;;;;;26.50;25.00;;;;;20.19;67.81;100724.91;4957576;28;45343;-74
2022/05/16 06:22:09;;;;;;;;;24.00;22.75;;;;;20.23;67.80;100728.16;4956199;28;45231;-73
2022/05/16 06:27:18;;;;;;;;;21.50;20.00;;;;;20.34;65.96;100730.00;4955441;28;45351;-73
2022/05/16 06:29:44;;;;;;;;;21.50;20.25;;;;;20.36;65.53;100728.91;4955235;28;45394;-75
2022/05/16 06:32:09;;;;;;;;;21.50;18.00;;;;;20.24;64.87;100714.72;4955553;28;45605;-74
2022/05/16 06:34:34;;;;;;;;;20.50;19.00;;;;;20.31;64.17;100731.09;4955704;28;46404;-75
2022/05/16 06:36:59;;;;;;;;;13.00;12.25;;;;;20.29;63.85;100735.69;4956710;28;45409;-74
2022/05/16 06:39:25;;;;;;;;;22.00;20.00;;;;;20.23;64.24;100736.19;4938470;28;45177;-74
2022/05/16 06:41:50;;;;;;;;;17.75;15.00;;;;;20.21;63.81;100730.13;4958094;28;45346;-75
2022/05/16 06:44:16;;;;;;;;;21.00;19.25;;;;;20.27;63.81;100754.53;4959891;28;46013;-73
2022/05/16 06:46:44;;;;;;;;;15.25;15.25;;;;;20.24;63.42;100743.22;4960300;28;45358;-75
2022/05/16 06:49:09;;;;;;;;;16.50;16.50;;;;;20.34;63.53;100759.38;4959389;28;45376;-74
2022/05/16 06:51:36;;;;;;;;;22.00;21.75;;;;;20.43;63.83;100759.50;4959194;28;45338;-75
2022/05/16 06:54:03;;;;;;;;;25.75;21.00;;;;;20.54;63.51;100769.34;4958732;28;46265;-74
2022/05/16 06:56:29;;;;;;;;;23.50;21.00;;;;;20.62;63.35;100775.91;4958675;28;45838;-75
2022/05/16 06:58:54;;;;;;;;;20.25;19.75;;;;;20.64;63.46;100776.63;4958295;28;45231;-74
2022/05/16 07:01:20;;;;;;;;;17.50;16.25;;;;;20.57;62.00;100770.91;4941097;28;45264;-75
2022/05/16 07:03:45;;;;;;;;;21.00;19.25;;;;;20.62;62.39;100790.09;4959933;28;46255;-75
2022/05/16 07:06:14;;;;;;;;;17.00;16.00;;;;;20.63;61.14;100801.66;4958034;28;45410;-74
2022/05/16 07:08:40;;;;;;;;;19.50;16.00;;;;;20.61;61.09;100808.94;4958580;28;45493;-73
2022/05/16 07:11:05;;;;;;;;;20.00;17.75;;;;;20.59;60.99;100811.72;4958437;28;45292;-74
2022/05/16 07:13:30;;;;;;;;;20.50;18.00;;;;;20.59;61.18;100811.72;4958128;28;45414;-74
2022/05/16 07:15:56;;;;;;;;;15.75;14.50;;;;;20.67;61.13;100825.31;4958381;28;45322;-75
2022/05/16 07:18:23;;;;;;;;;19.50;16.50;;;;;20.74;60.60;100828.38;4958363;28;45228;-74
2022/05/16 07:20:49;;;;;;;;;15.75;14.50;;;;;20.78;60.59;100824.50;4958393;28;45453;-75
2022/05/16 07:23:15;;;;;;;;;15.00;14.50;;;;;20.88;59.62;100827.31;4957659;28;45245;-75
2022/05/16 07:28:25;;;;;;;;;18.25;14.75;;;;;20.91;59.04;100835.09;4960585;28;45950;-74
2022/05/16 07:30:51;;;;;;;;;15.75;14.25;;;;;20.89;58.28;100838.84;4959347;28;45415;-75
2022/05/16 07:33:16;;;;;;;;;15.00;11.50;;;;;20.76;58.32;100834.44;4958521;28;45963;-76
2022/05/16 07:35:42;;;;;;;;;14.25;12.00;;;;;20.82;58.39;100849.19;4958613;28;45369;-74
2022/05/16 07:38:07;;;;;;;;;15.75;13.75;;;;;20.75;57.95;100834.56;4959158;28;45575;-74
2022/05/16 07:40:36;;;;;;;;;13.25;11.25;;;;;20.83;58.12;100854.41;4941611;28;45409;-75
2022/05/16 07:43:02;;;;;;;;;14.25;11.50;;;;;20.92;57.81;100858.16;4959431;28;45360;-75
2022/05/16 07:45:28;;;;;;;;;14.50;13.25;;;;;20.98;57.96;100846.13;4942551;28;45899;-75
2022/05/16 07:47:54;;;;;;;;;15.25;13.75;;;;;21.21;57.25;100859.50;4959751;28;45247;-75
2022/05/16 07:50:20;;;;;;;;;14.25;13.50;;;;;21.27;57.15;100861.66;4958731;28;45252;-75
2022/05/16 07:52:48;;;;;;;;;12.00;11.75;;;;;21.36;57.03;100860.03;4940830;28;47040;-75
2022/05/16 07:55:16;;;;;;;;;16.25;13.00;;;;;21.42;56.48;100854.19;4957319;28;45380;-76
2022/05/16 07:57:42;;;;;;;;;13.50;13.00;;;;;21.52;56.24;100855.13;4940162;28;45404;-74
2022/05/16 08:00:08;;;;;;;;;11.00;10.25;;;;;21.60;55.50;100865.22;4940846;28;45561;-76
2022/05/16 08:02:34;;;;;;;;;12.00;10.75;;;;;21.50;55.46;100854.41;4956381;28;47805;-75
2022/05/16 08:05:00;;;;;;;;;14.50;12.75;;;;;21.42;55.33;100847.03;4957404;28;45398;-75
2022/05/16 08:07:25;;;;;;;;;13.50;11.25;;;;;21.66;54.76;100867.41;4957723;28;45306;-76
2022/05/16 08:12:37;;;;;;;;;13.50;12.25;;;;;21.65;54.65;100872.88;4957619;28;45367;-75
2022/05/16 08:15:05;;;;;;;;;17.75;14.50;;;;;21.71;54.81;100875.91;4939777;28;45347;-74
2022/05/16 08:17:31;;;;;;;;;9.75;9.75;;;;;21.77;53.98;100874.56;4957159;28;45248;-73
2022/05/16 08:19:57;;;;;;;;;10.75;8.75;;;;;21.88;53.61;100876.34;4957433;28;45711;-74
2022/05/16 08:22:33;;;;;;;;;11.50;10.50;;;;;21.96;53.41;100884.56;4957471;28;46014;-75
2022/05/16 08:24:59;;;;;;;;;10.25;10.25;;;;;21.97;52.97;100877.41;4957536;28;45438;-73
2022/05/16 08:27:25;;;;;;;;;10.00;9.75;;;;;22.07;53.24;100882.81;4958211;28;45282;-76
2022/05/16 08:29:51;;;;;;;;;10.00;9.75;;;;;22.16;52.56;100893.63;4960501;28;45370;-76
2022/05/16 08:32:19;;;;;;;;;11.00;9.25;;;;;22.20;52.60;100893.34;4957165;28;46160;-75
2022/05/16 08:34:46;;;;;;;;;11.00;11.00;;;;;22.17;52.70;100891.78;4958401;28;45263;-76
2022/05/16 08:40:04;;;;;;;;;10.50;10.50;;;;;22.31;52.37;100875.41;4957736;28;45345;-73
2022/05/16 08:42:38;;;;;;;;;12.00;12.00;;;;;22.49;52.00;100904.31;4939404;28;47125;-75
2022/05/16 08:45:11;;;;;;;;;8.50;8.50;;;;;22.46;51.56;100894.69;4957165;28;45503;-74
2022/05/16 08:47:59;;;;;;;;;10.50;10.50;;;;;22.69;51.68;100909.78;4957233;28;45324;-73
2022/05/16 08:50:33;;;;;;;;;8.75;8.75;;;;;22.94;51.12;100915.69;4955326;28;45363;-75
2022/05/16 08:53:07;;;;;;;;;10.50;10.50;;;;;23.13;51.29;100904.19;4956245;28;46479;-74
2022/05/16 08:55:38;;;;;;;;;10.00;10.00;;;;;23.42;50.26;100916.84;4956843;28;45452;-73
2022/05/16 08:58:18;;;;;;;;;9.50;8.00;;;;;23.49;49.52;100920.69;4957279;28;45382;-74
2022/05/16 09:00:51;;;;;;;;;9.00;8.00;;;;;23.51;48.93;100920.56;4956924;28;45385;-74
2022/05/16 09:03:42;;;;;;;;;11.00;9.00;;;;;23.50;48.55;100911.66;4956284;28;45495;-74
2022/05/16 09:06:15;;;;;;;;;7.75;7.75;;;;;23.58;49.24;100914.47;4956148;28;45449;-75
2022/05/16 09:08:56;;;;;;;;;9.50;9.50;;;;;23.62;48.75;100923.97;4957048;28;45300;-74
2022/05/16 09:11:51;;;;;;;;;8.50;8.50;;;;;23.53;49.84;100938.22;4956654;28;45326;-76
2022/05/16 09:14:35;;;;;;;;;9.75;9.75;;;;;23.39;49.48;100939.47;4960002;28;45386;-75
2022/05/16 09:17:04;;;;;;;;;6.25;6.25;;;;;23.11;50.19;100941.03;4957566;28;45323;-75
2022/05/16 09:19:54;;;;;;;;;11.50;10.00;;;;;22.83;50.79;100943.44;4956505;28;45344;-75
2022/05/16 09:22:27;;;;;;;;;8.25;8.25;;;;;22.65;51.32;100949.38;4956889;28;45312;-74
2022/05/16 09:25:22;;;;;;;;;8.00;8.00;;;;;22.49;51.12;100949.00;4956708;28;45596;-75
2022/05/16 09:30:39;;;;;;;;;13.25;13.25;;;;;22.37;51.79;100950.88;4958516;28;45398;-75
2022/05/16 09:33:09;;;;;;;;;12.25;12.25;;;;;22.33;50.88;100950.28;4957391;28;45502;-74
2022/05/16 09:36:00;;;;;;;;;11.00;9.00;;;;;22.31;50.98;100963.81;4938813;28;46265;-73
2022/05/16 09:38:25;;;;;;;;;11.00;10.00;;;;;22.31;51.12;100962.97;4956149;28;45347;-75
2022/05/16 09:41:05;;;;;;;;;15.25;12.25;;;;;22.38;51.52;100960.63;4956352;28;45390;-76
2022/05/16 09:43:34;;;;;;;;;8.75;8.75;;;;;22.55;50.72;100970.78;4957977;28;45211;-74
2022/05/16 09:46:25;;;;;;;;;9.75;9.50;;;;;22.85;51.31;100966.47;4957415;28;45420;-75
2022/05/16 09:49:12;;;;;;;;;14.00;13.00;;;;;22.99;51.07;100961.72;4957899;28;45327;-74
2022/05/16 09:51:43;;;;;;;;;15.25;14.25;;;;;23.03;51.01;100964.00;4955792;28;45423;-74
2022/05/16 09:54:27;;;;;;;;;11.25;11.25;;;;;23.13;51.43;100973.94;4956254;28;45481;-74
2022/05/16 09:57:12;;;;;;;;;11.50;11.50;;;;;23.23;51.63;100980.19;4957065;28;46096;-74
2022/05/16 09:59:47;;;;;;;;;19.75;18.25;;;;;23.37;50.94;100984.38;4954664;28;45418;-74
2022/05/16 10:02:19;;;;;;;;;15.00;14.00;;;;;23.45;50.50;100983.69;4956346;28;45625;-75
2022/05/16 10:04:47;;;;;;;;;12.50;11.00;;;;;23.56;50.67;100977.38;4956330;28;45430;-73
2022/05/16 10:07:13;;;;;;;;;18.50;15.75;;;;;23.61;49.74;100977.81;4956528;28;46333;-74
2022/05/16 10:09:48;;;;;;;;;10.25;9.75;;;;;23.58;49.63;100983.47;4955719;28;45477;-75
2022/05/16 10:12:17;;;;;;;;;12.75;11.25;;;;;23.56;49.98;100980.91;4955666;28;45338;-74
2022/05/16 10:14:44;;;;;;;;;12.25;10.50;;;;;23.67;49.40;100979.94;4956050;28;45262;-75
2022/05/16 10:17:15;;;;;;;;;21.25;19.75;;;;;23.67;49.90;100963.84;4955816;28;46179;-74
2022/05/16 10:19:42;;;;;;;;;17.00;14.25;;;;;23.86;49.00;100992.56;4959043;28;45458;-75
2022/05/16 10:22:13;;;;;;;;;10.75;9.75;;;;;23.90;48.50;101007.44;4953947;28;45464;-75
2022/05/16 10:24:44;;;;;;;;;13.75;11.75;;;;;23.92;48.85;100999.22;4956003;28;45462;-74
2022/05/16 10:27:13;;;;;;;;;12.25;12.25;;;;;24.14;48.27;101002.66;4953035;28;46037;-74
2022/05/16 10:29:45;;;;;;;;;13.50;13.50;;;;;24.51;48.11;100997.44;4937234;28;45268;-74
2022/05/16 10:35:11;;;;;;;;;17.00;14.75;;;;;25.31;47.82;100993.56;4955000;28;45379;-75
2022/05/16 10:37:42;;;;;;;;;19.50;18.75;;;;;25.69;46.62;100996.25;4955320;28;48350;-74
2022/05/16 10:40:19;;;;;;;;;12.75;12.25;;;;;25.84;45.74;100988.47;4955606;28;45442;-75
2022/05/16 10:42:54;;;;;;;;;10.00;10.00;;;;;25.99;46.06;100991.50;4955395;28;45275;-74
2022/05/16 10:45:25;;;;;;;;;15.50;15.00;;;;;26.01;44.92;100991.38;4955864;28;45379;-75
2022/05/16 10:47:56;;;;;;;;;15.00;15.00;;;;;25.91;44.74;100997.66;4955815;28;46386;-75
2022/05/16 10:50:38;;;;;;;;;13.50;10.25;;;;;25.84;45.01;100993.03;4953806;28;45382;-75
2022/05/16 10:53:25;;;;;;;;;10.25;10.25;;;;;25.73;45.23;100996.78;4955369;28;45402;-73
2022/05/16 10:56:30;;;;;;;;;15.00;12.00;;;;;25.80;45.75;100995.19;4955066;28;45355;-75
2022/05/16 10:59:19;;;;;;;;;12.75;12.25;;;;;25.94;45.18;100978.47;4932816;28;46954;-76
2022/05/16 11:02:10;;;;;;;;;13.25;12.00;;;;;26.22;44.84;101004.56;4955221;28;45408;-75
2022/05/16 11:04:54;;;;;;;;;11.50;9.75;;;;;26.28;43.32;100997.72;4955022;28;45445;-73
2022/05/16 11:07:33;;;;;;;;;11.25;10.25;;;;;26.18;43.42;100995.94;4953695;28;45226;-76
2022/05/16 11:10:08;;;;;;;;;14.00;12.00;;;;;26.18;43.69;100981.59;4954337;28;45422;-76
2022/05/16 11:12:48;;;;;;;;;15.25;14.25;;;;;26.34;43.69;100989.00;4954727;28;45331;-75
2022/05/16 11:15:26;;;;;;;;;12.00;11.75;;;;;26.54;42.93;100989.69;4953171;28;45376;-76
2022/05/16 11:18:14;;;;;;;;;14.50;14.50;;;;;26.54;43.38;100998.59;4955191;28;45632;-75
2022/05/16 11:20:43;;;;;;;;;12.00;12.00;;;;;26.59;43.32;100986.50;4954275;28;45457;-75
2022/05/16 11:23:18;;;;;;;;;13.25;12.00;;;;;26.61;42.38;100995.28;4954684;28;45370;-76
2022/05/16 11:25:56;;;;;;;;;10.75;10.75;;;;;26.59;42.49;100987.34;4955095;28;45476;-74
2022/05/16 11:28:33;;;;;;;;;10.50;10.50;;;;;26.63;42.30;100990.56;4956626;28;45303;-75
2022/05/16 11:31:03;;;;;;;;;4.00;2.75;;;;;26.51;42.25;100995.38;4958211;28;47078;-75
2022/05/16 11:33:37;;;;;;;;;10.00;9.00;;;;;26.32;41.99;100991.84;4958180;28;45236;-75
2022/05/16 11:36:22;;;;;;;;;11.75;11.75;;;;;26.30;42.35;100995.72;4958712;28;45323;-75
2022/05/16 11:39:07;;;;;;;;;11.25;9.50;;;;;26.44;42.16;100994.28;4957790;28;45268;-74
2022/05/16 11:41:54;;;;;;;;;10.00;10.00;;;;;26.25;41.09;100990.75;4957539;28;45571;-76
2022/05/16 11:44:55;;;;;;;;;7.75;7.75;;;;;26.07;41.26;100994.28;4957786;28;45225;-75
2022/05/16 11:47:30;;;;;;;;;9.00;9.00;;;;;26.02;41.64;100995.75;4930372;28;45363;-75
2022/05/16 11:50:08;;;;;;;;;6.50;6.50;;;;;25.88;41.46;100994.44;4957322;28;45373;-75
2022/05/16 11:52:48;;;;;;;;;9.75;7.75;;;;;25.78;41.51;100987.25;4955633;28;47377;-75
2022/05/16 12:00:59;;;;;;;;;9.25;7.00;;;;;25.91;41.57;100980.66;4958049;28;45293;-75
2022/05/16 12:03:41;;;;;;;;;11.75;8.50;;;;;25.93;41.30;100976.78;4957668;28;46286;-74
2022/05/16 12:06:34;;;;;;;;;5.25;5.25;;;;;26.07;40.81;100972.72;4957118;28;45911;-74